Time;durP1;ratioP1;P1;durP2;ratioP2;P2;SDS_P1;SDS_P2;PMS_P1;PMS_P2;Temp;Humidity;BMP_temperature;BMP_pressure;BME280_temperature;BME280_humidity;BME280_pressure;Samples;Min_cycle;Max_cycle;Signal;HPM_P1;HPM_P2
2021/11/24 00:00:42;;;;;;;8.23;6.47;;;;;;;;;;5037248;28;20532;-72
2021/11/24 00:03:08;;;;;;;8.20;6.97;;;;;;;;;;5036904;28;20021;-73
2021/11/24 00:05:34;;;;;;;7.43;6.03;;;;;;;;;;5036966;28;20444;-73
2021/11/24 00:08:00;;;;;;;9.07;6.85;;;;;;;;;;5054704;28;20083;-74
2021/11/24 00:10:29;;;;;;;8.95;7.07;;;;;;;;;;5053757;28;20417;-73
2021/11/24 00:12:55;;;;;;;11.13;7.43;;;;;;;;;;5054945;28;20037;-73
2021/11/24 00:15:21;;;;;;;11.50;7.80;;;;;;;;;;5054760;28;20041;-73
2021/11/24 00:17:46;;;;;;;10.55;8.32;;;;;;;;;;5054974;28;20033;-74
2021/11/24 00:20:13;;;;;;;10.57;8.25;;;;;;;;;;5054705;28;20041;-74
2021/11/24 00:22:38;;;;;;;9.55;7.78;;;;;;;;;;5054371;28;20021;-72
2021/11/24 00:25:06;;;;;;;10.70;8.55;;;;;;;;;;5054558;28;20483;-73
2021/11/24 00:27:32;;;;;;;9.63;8.38;;;;;;;;;;5054626;28;20025;-72
2021/11/24 00:29:57;;;;;;;11.27;8.95;;;;;;;;;;5054192;28;20393;-68
2021/11/24 00:32:23;;;;;;;11.13;8.90;;;;;;;;;;5054320;28;20076;-67
2021/11/24 00:34:49;;;;;;;10.43;8.25;;;;;;;;;;5054102;28;20045;-66
2021/11/24 00:37:16;;;;;;;11.00;8.40;;;;;;;;;;5054010;28;20024;-66
2021/11/24 00:39:42;;;;;;;11.55;8.93;;;;;;;;;;5053978;28;20041;-67
2021/11/24 00:42:07;;;;;;;11.98;9.25;;;;;;;;;;5054150;28;20040;-67
2021/11/24 00:44:33;;;;;;;9.48;8.30;;;;;;;;;;5053395;28;20519;-72
2021/11/24 00:46:58;;;;;;;12.10;8.80;;;;;;;;;;5053834;28;20012;-72
2021/11/24 00:49:25;;;;;;;12.25;8.85;;;;;;;;;;5035954;28;20080;-73
2021/11/24 00:51:51;;;;;;;10.85;8.38;;;;;;;;;;5053736;28;20029;-74
2021/11/24 00:54:16;;;;;;;12.48;8.55;;;;;;;;;;5054072;28;20041;-73
2021/11/24 00:56:42;;;;;;;11.50;7.75;;;;;;;;;;5054059;28;20032;-73
2021/11/24 00:59:08;;;;;;;8.98;7.97;;;;;;;;;;5053703;28;20029;-73
2021/11/24 01:01:33;;;;;;;11.23;7.82;;;;;;;;;;5053947;28;20029;-73
2021/11/24 01:03:59;;;;;;;10.18;7.15;;;;;;;;;;5053908;28;20079;-73
2021/11/24 01:06:25;;;;;;;11.38;8.00;;;;;;;;;;5053952;28;20029;-73
2021/11/24 01:08:50;;;;;;;10.52;7.40;;;;;;;;;;5053906;28;20036;-73
2021/11/24 01:11:16;;;;;;;8.73;7.20;;;;;;;;;;5035842;28;20369;-73
2021/11/24 01:13:41;;;;;;;9.27;6.93;;;;;;;;;;5053586;28;20040;-74
2021/11/24 01:16:07;;;;;;;8.30;6.75;;;;;;;;;;5053509;28;20029;-67
2021/11/24 01:18:33;;;;;;;8.65;6.88;;;;;;;;;;5053414;28;20041;-67
2021/11/24 01:20:59;;;;;;;10.10;8.00;;;;;;;;;;5035297;28;20032;-67
2021/11/24 01:23:24;;;;;;;13.00;7.75;;;;;;;;;;5053056;28;20065;-66
2021/11/24 01:25:50;;;;;;;10.55;7.85;;;;;;;;;;5035490;28;20029;-66
2021/11/24 01:28:15;;;;;;;9.05;7.55;;;;;;;;;;5053023;28;20044;-66
2021/11/24 01:30:41;;;;;;;10.15;7.97;;;;;;;;;;5053295;28;20025;-65
2021/11/24 01:33:06;;;;;;;10.15;7.10;;;;;;;;;;5035466;28;20528;-66
2021/11/24 01:35:32;;;;;;;9.10;6.88;;;;;;;;;;5053149;28;20373;-66
2021/11/24 01:37:58;;;;;;;8.35;6.75;;;;;;;;;;5035300;28;20090;-66
2021/11/24 01:40:23;;;;;;;9.98;7.72;;;;;;;;;;5035445;28;20057;-66
2021/11/24 01:42:49;;;;;;;8.95;6.85;;;;;;;;;;5053164;28;20055;-66
2021/11/24 01:45:19;;;;;;;9.63;7.25;;;;;;;;;;5053395;28;20427;-72
2021/11/24 01:47:45;;;;;;;9.00;7.03;;;;;;;;;;5053011;28;20033;-71
2021/11/24 01:50:11;;;;;;;9.95;7.47;;;;;;;;;;5053045;28;20052;-72
2021/11/24 01:52:37;;;;;;;8.88;7.15;;;;;;;;;;5052992;28;20033;-72
2021/11/24 01:55:04;;;;;;;10.32;7.82;;;;;;;;;;5052965;28;20493;-73
2021/11/24 01:57:29;;;;;;;9.85;7.88;;;;;;;;;;5053023;28;20041;-72
2021/11/24 01:59:56;;;;;;;11.05;8.23;;;;;;;;;;5053087;28;20040;-73
2021/11/24 02:02:26;;;;;;;10.07;8.05;;;;;;;;;;5052789;28;20044;-72
2021/11/24 02:04:51;;;;;;;10.10;8.48;;;;;;;;;;5052897;28;20088;-72
2021/11/24 02:07:17;;;;;;;11.25;8.70;;;;;;;;;;5052880;28;20464;-72
2021/11/24 02:09:43;;;;;;;11.05;8.45;;;;;;;;;;5034982;28;20111;-72
2021/11/24 02:12:11;;;;;;;11.48;8.32;;;;;;;;;;5053016;28;20037;-73
2021/11/24 02:14:36;;;;;;;12.85;9.23;;;;;;;;;;5053250;28;20053;-72
2021/11/24 02:17:02;;;;;;;12.20;8.18;;;;;;;;;;5052967;28;20064;-72
2021/11/24 02:19:29;;;;;;;9.63;7.82;;;;;;;;;;5052743;28;20021;-66
2021/11/24 02:21:54;;;;;;;11.30;8.07;;;;;;;;;;5035142;28;20025;-65
2021/11/24 02:24:21;;;;;;;11.65;7.97;;;;;;;;;;5052550;28;20453;-65
2021/11/24 02:26:46;;;;;;;8.85;7.60;;;;;;;;;;5052779;28;20037;-65
2021/11/24 02:29:12;;;;;;;9.02;7.90;;;;;;;;;;5052875;28;20470;-65
2021/11/24 02:31:38;;;;;;;10.68;7.75;;;;;;;;;;5034965;28;20087;-65
2021/11/24 02:34:03;;;;;;;9.40;7.53;;;;;;;;;;5053356;28;20401;-65
2021/11/24 02:36:29;;;;;;;10.07;7.70;;;;;;;;;;5056052;28;20037;-66
2021/11/24 02:38:55;;;;;;;11.73;8.18;;;;;;;;;;5056375;28;20548;-66
2021/11/24 02:41:20;;;;;;;9.23;7.75;;;;;;;;;;5056461;28;20122;-66
2021/11/24 02:43:46;;;;;;;10.93;7.90;;;;;;;;;;5056470;28;20142;-66
2021/11/24 02:46:12;;;;;;;10.80;8.00;;;;;;;;;;5056516;28;20037;-65
2021/11/24 02:48:38;;;;;;;9.32;7.72;;;;;;;;;;5055981;28;20049;-67
2021/11/24 02:51:04;;;;;;;10.52;8.13;;;;;;;;;;5056298;28;20432;-67
2021/11/24 02:53:30;;;;;;;10.68;7.53;;;;;;;;;;5056236;28;20025;-67
2021/11/24 02:55:56;;;;;;;9.68;7.82;;;;;;;;;;5056046;28;20403;-67
2021/11/24 02:58:22;;;;;;;11.85;8.65;;;;;;;;;;5056019;28;20113;-67
2021/11/24 03:00:48;;;;;;;13.32;9.07;;;;;;;;;;5056198;28;20103;-67
2021/11/24 03:03:13;;;;;;;10.35;7.88;;;;;;;;;;5055652;28;20468;-67
2021/11/24 03:05:40;;;;;;;10.95;8.23;;;;;;;;;;5055724;28;20116;-67
2021/11/24 03:08:06;;;;;;;10.70;8.60;;;;;;;;;;5056057;28;20071;-66
2021/11/24 03:10:32;;;;;;;12.40;8.38;;;;;;;;;;5055812;28;20037;-66
2021/11/24 03:12:58;;;;;;;11.10;8.10;;;;;;;;;;5038241;28;20056;-71
2021/11/24 03:15:24;;;;;;;12.30;8.13;;;;;;;;;;5038188;28;20049;-72
2021/11/24 03:17:51;;;;;;;9.48;7.45;;;;;;;;;;5055741;28;20078;-72
2021/11/24 03:20:17;;;;;;;12.80;9.05;;;;;;;;;;5055478;28;20121;-72
2021/11/24 03:22:43;;;;;;;13.00;8.25;;;;;;;;;;5055374;28;20552;-72
2021/11/24 03:25:09;;;;;;;11.95;8.77;;;;;;;;;;5055446;28;20533;-72
2021/11/24 03:27:37;;;;;;;11.82;8.43;;;;;;;;;;5055466;28;20024;-72
2021/11/24 03:30:10;;;;;;;12.32;8.90;;;;;;;;;;5055133;28;20041;-73
2021/11/24 03:32:35;;;;;;;11.02;8.45;;;;;;;;;;5055680;28;20370;-69
2021/11/24 03:35:01;;;;;;;10.73;8.77;;;;;;;;;;5055568;28;20159;-73
2021/11/24 03:37:27;;;;;;;11.65;8.82;;;;;;;;;;5055889;28;20473;-74
2021/11/24 03:39:53;;;;;;;13.27;8.77;;;;;;;;;;5055508;28;20040;-73
2021/11/24 03:42:19;;;;;;;12.65;9.00;;;;;;;;;;5055196;28;20044;-73
2021/11/24 03:44:45;;;;;;;11.25;8.77;;;;;;;;;;5037301;28;20021;-73
2021/11/24 03:47:11;;;;;;;13.00;8.90;;;;;;;;;;5055102;28;20128;-73
2021/11/24 03:49:37;;;;;;;12.75;8.98;;;;;;;;;;5037484;28;20041;-73
2021/11/24 03:52:04;;;;;;;13.05;8.88;;;;;;;;;;5037447;28;20450;-73
2021/11/24 03:54:29;;;;;;;13.32;8.80;;;;;;;;;;5054908;28;20112;-73
2021/11/24 03:56:55;;;;;;;13.13;9.50;;;;;;;;;;5054945;28;20056;-73
2021/11/24 03:59:20;;;;;;;14.10;10.15;;;;;;;;;;5055069;28;20021;-73
2021/11/24 04:01:46;;;;;;;14.15;10.43;;;;;;;;;;5054801;28;20468;-72
2021/11/24 04:04:11;;;;;;;16.90;11.05;;;;;;;;;;5054681;28;20401;-71
2021/11/24 04:06:37;;;;;;;13.75;9.95;;;;;;;;;;5054714;28;20120;-71
2021/11/24 04:09:02;;;;;;;18.13;11.75;;;;;;;;;;5054833;28;20033;-71
2021/11/24 04:11:28;;;;;;;17.90;12.20;;;;;;;;;;5054742;28;20037;-73
2021/11/24 04:13:54;;;;;;;19.45;12.38;;;;;;;;;;5054610;28;20599;-73
2021/11/24 04:16:19;;;;;;;21.05;12.77;;;;;;;;;;5054758;28;20037;-73
2021/11/24 04:18:47;;;;;;;23.13;14.07;;;;;;;;;;5054673;28;20075;-73
2021/11/24 04:21:13;;;;;;;21.38;13.93;;;;;;;;;;5054552;28;20056;-73
2021/11/24 04:23:38;;;;;;;19.75;12.63;;;;;;;;;;5036341;28;20032;-73
2021/11/24 04:26:04;;;;;;;20.95;14.45;;;;;;;;;;5054103;28;20135;-73
2021/11/24 04:28:29;;;;;;;19.30;14.00;;;;;;;;;;5054332;28;20025;-73
2021/11/24 04:30:55;;;;;;;21.48;13.30;;;;;;;;;;5054245;28;20481;-73
2021/11/24 04:33:20;;;;;;;20.08;14.00;;;;;;;;;;5020136;28;20037;-72
2021/11/24 04:35:46;;;;;;;24.85;15.65;;;;;;;;;;5036422;28;20083;-72
2021/11/24 04:38:11;;;;;;;22.58;15.95;;;;;;;;;;5036210;28;20028;-73
2021/11/24 04:40:37;;;;;;;20.73;14.55;;;;;;;;;;5054368;28;20456;-73
2021/11/24 04:43:05;;;;;;;21.38;14.45;;;;;;;;;;5054110;28;20391;-73
2021/11/24 04:45:31;;;;;;;23.05;14.93;;;;;;;;;;5054334;28;20039;-73
2021/11/24 04:47:56;;;;;;;23.85;15.18;;;;;;;;;;5053596;28;20124;-73
2021/11/24 04:50:22;;;;;;;21.65;14.27;;;;;;;;;;5054104;28;20264;-73
2021/11/24 04:52:47;;;;;;;17.98;13.00;;;;;;;;;;5054045;28;20370;-67
2021/11/24 04:55:14;;;;;;;21.48;13.57;;;;;;;;;;5054177;28;20047;-68
2021/11/24 04:57:39;;;;;;;18.95;12.98;;;;;;;;;;5053296;28;20141;-69
2021/11/24 05:00:07;;;;;;;16.15;11.85;;;;;;;;;;5053599;28;20131;-69
2021/11/24 05:02:33;;;;;;;18.63;13.27;;;;;;;;;;5053700;28;20035;-70
2021/11/24 05:04:58;;;;;;;18.55;12.95;;;;;;;;;;5053465;28;20032;-69
2021/11/24 05:07:24;;;;;;;17.63;12.98;;;;;;;;;;5053569;28;20033;-68
2021/11/24 05:09:49;;;;;;;18.55;12.43;;;;;;;;;;5053411;28;20033;-68
2021/11/24 05:12:15;;;;;;;17.20;12.15;;;;;;;;;;5053559;28;20485;-68
2021/11/24 05:14:42;;;;;;;16.98;12.52;;;;;;;;;;5053667;28;20056;-68
2021/11/24 05:17:10;;;;;;;17.40;12.15;;;;;;;;;;5053708;28;20453;-68
2021/11/24 05:19:38;;;;;;;16.13;12.57;;;;;;;;;;5053031;28;20041;-68
2021/11/24 05:22:04;;;;;;;21.23;13.80;;;;;;;;;;5053679;28;20036;-68
2021/11/24 05:24:30;;;;;;;16.83;11.38;;;;;;;;;;5052938;28;20047;-68
2021/11/24 05:26:56;;;;;;;18.45;12.32;;;;;;;;;;5053040;28;20037;-68
2021/11/24 05:29:22;;;;;;;18.13;12.38;;;;;;;;;;5053257;28;20072;-68
2021/11/24 05:31:48;;;;;;;15.77;12.13;;;;;;;;;;5053156;28;20028;-68
2021/11/24 05:34:14;;;;;;;16.77;12.38;;;;;;;;;;5053367;28;20041;-68
2021/11/24 05:36:39;;;;;;;16.67;11.82;;;;;;;;;;5053373;28;20029;-67
2021/11/24 05:39:07;;;;;;;16.17;11.32;;;;;;;;;;5053209;28;20060;-67
2021/11/24 05:41:38;;;;;;;18.30;11.68;;;;;;;;;;5053260;28;20033;-67
2021/11/24 05:44:16;;;;;;;13.00;9.88;;;;;;;;;;5053100;28;20191;-67
2021/11/24 05:46:51;;;;;;;16.17;10.93;;;;;;;;;;5053184;28;20036;-67
2021/11/24 05:49:17;;;;;;;15.85;11.82;;;;;;;;;;5053270;28;20041;-67
2021/11/24 05:51:43;;;;;;;17.30;11.80;;;;;;;;;;5053000;28;20045;-68
2021/11/24 05:54:09;;;;;;;18.65;11.65;;;;;;;;;;5052949;28;20500;-68
2021/11/24 05:56:37;;;;;;;17.52;12.23;;;;;;;;;;5053058;28;20099;-68
2021/11/24 05:59:03;;;;;;;17.10;10.90;;;;;;;;;;5053533;28;20059;-68
2021/11/24 06:01:29;;;;;;;16.83;11.30;;;;;;;;;;5053080;28;20041;-68
2021/11/24 06:03:54;;;;;;;16.77;11.95;;;;;;;;;;5052921;28;20021;-69
2021/11/24 06:06:20;;;;;;;18.45;12.38;;;;;;;;;;5052990;28;20485;-69
2021/11/24 06:08:46;;;;;;;16.98;11.80;;;;;;;;;;5053483;28;20469;-69
2021/11/24 06:11:11;;;;;;;15.02;10.40;;;;;;;;;;5056877;28;20041;-69
2021/11/24 06:13:37;;;;;;;16.80;11.60;;;;;;;;;;5038735;28;20044;-69
2021/11/24 06:16:02;;;;;;;17.30;11.77;;;;;;;;;;5056745;28;20063;-68
2021/11/24 06:18:28;;;;;;;15.07;10.63;;;;;;;;;;5056732;28;20477;-69
2021/11/24 06:20:53;;;;;;;18.20;11.98;;;;;;;;;;5056908;28;20037;-67
2021/11/24 06:23:19;;;;;;;19.23;11.73;;;;;;;;;;5038846;28;20405;-68
2021/11/24 06:25:44;;;;;;;17.73;11.05;;;;;;;;;;5056546;28;20045;-68
2021/11/24 06:28:12;;;;;;;16.35;11.27;;;;;;;;;;5056593;28;20033;-68
2021/11/24 06:30:38;;;;;;;21.40;12.02;;;;;;;;;;5056477;28;20033;-68
2021/11/24 06:33:03;;;;;;;18.35;12.02;;;;;;;;;;5056574;28;20416;-68
2021/11/24 06:35:29;;;;;;;18.27;12.05;;;;;;;;;;5056307;28;20128;-68
2021/11/24 06:37:55;;;;;;;19.40;11.52;;;;;;;;;;5056426;28;20071;-68
2021/11/24 06:40:20;;;;;;;19.45;11.63;;;;;;;;;;5056438;28;20053;-68
2021/11/24 06:42:46;;;;;;;16.83;11.57;;;;;;;;;;5038695;28;20384;-68
2021/11/24 06:45:12;;;;;;;15.15;10.68;;;;;;;;;;5038371;28;20037;-68
2021/11/24 06:47:39;;;;;;;17.48;11.52;;;;;;;;;;5055816;28;20091;-63
2021/11/24 06:50:05;;;;;;;17.05;11.45;;;;;;;;;;5056282;28;20088;-67
2021/11/24 06:52:30;;;;;;;16.45;11.32;;;;;;;;;;5055962;28;20029;-67
2021/11/24 06:54:56;;;;;;;20.20;11.57;;;;;;;;;;5056303;28;20082;-68
2021/11/24 06:57:21;;;;;;;17.35;11.35;;;;;;;;;;5056231;28;20036;-68
2021/11/24 06:59:47;;;;;;;19.00;11.93;;;;;;;;;;5056088;28;20033;-67
2021/11/24 07:02:12;;;;;;;17.42;12.00;;;;;;;;;;5056197;28;20033;-67
2021/11/24 07:04:39;;;;;;;18.27;11.90;;;;;;;;;;5038214;28;20060;-67
2021/11/24 07:07:04;;;;;;;20.67;11.60;;;;;;;;;;5056023;28;20035;-67
2021/11/24 07:09:30;;;;;;;17.73;11.90;;;;;;;;;;5055498;28;20121;-68
2021/11/24 07:11:55;;;;;;;18.13;11.77;;;;;;;;;;5055977;28;20029;-67
2021/11/24 07:14:21;;;;;;;20.23;12.02;;;;;;;;;;5055474;28;20051;-67
2021/11/24 07:16:46;;;;;;;20.00;12.68;;;;;;;;;;5055657;28;20035;-67
2021/11/24 07:19:12;;;;;;;19.02;12.60;;;;;;;;;;5055559;28;20036;-67
2021/11/24 07:21:40;;;;;;;17.67;12.15;;;;;;;;;;5055145;28;20397;-67
2021/11/24 07:24:06;;;;;;;18.15;11.70;;;;;;;;;;5055477;28;20572;-67
2021/11/24 07:26:31;;;;;;;19.60;12.55;;;;;;;;;;5055786;28;20060;-67
2021/11/24 07:28:57;;;;;;;20.05;12.20;;;;;;;;;;5055472;28;20086;-67
2021/11/24 07:31:22;;;;;;;18.02;12.35;;;;;;;;;;5055447;28;20037;-67
2021/11/24 07:33:48;;;;;;;16.42;12.07;;;;;;;;;;5055302;28;20048;-67
2021/11/24 07:36:13;;;;;;;15.63;11.90;;;;;;;;;;5037379;28;20025;-67
2021/11/24 07:38:39;;;;;;;18.95;12.85;;;;;;;;;;5055069;28;20481;-67
2021/11/24 07:41:04;;;;;;;19.08;12.73;;;;;;;;;;5055299;28;20411;-67
2021/11/24 07:43:31;;;;;;;17.80;12.13;;;;;;;;;;5055094;28;20055;-67
2021/11/24 07:45:57;;;;;;;16.40;12.23;;;;;;;;;;5055191;28;20025;-67
2021/11/24 07:48:24;;;;;;;17.65;12.35;;;;;;;;;;5054494;28;20045;-67
2021/11/24 07:50:50;;;;;;;19.58;12.45;;;;;;;;;;5054924;28;20393;-68
2021/11/24 07:53:15;;;;;;;17.27;11.70;;;;;;;;;;5054773;28;20041;-68
2021/11/24 07:55:41;;;;;;;20.88;12.40;;;;;;;;;;5054848;28;20076;-68
2021/11/24 07:58:06;;;;;;;17.88;11.90;;;;;;;;;;5054830;28;20389;-68
2021/11/24 08:00:31;;;;;;;19.50;12.63;;;;;;;;;;5054951;28;20044;-67
2021/11/24 08:02:57;;;;;;;17.40;12.15;;;;;;;;;;5054432;28;20080;-67
2021/11/24 08:05:22;;;;;;;18.85;12.70;;;;;;;;;;5054874;28;20028;-67
2021/11/24 08:07:48;;;;;;;19.67;12.48;;;;;;;;;;5054923;28;20449;-67
2021/11/24 08:10:13;;;;;;;17.23;12.10;;;;;;;;;;5054886;28;20021;-67
2021/11/24 08:12:39;;;;;;;18.88;11.82;;;;;;;;;;5054761;28;20416;-67
2021/11/24 08:15:05;;;;;;;16.17;11.07;;;;;;;;;;5054486;28;20484;-67
2021/11/24 08:17:31;;;;;;;20.88;13.13;;;;;;;;;;5054868;28;20048;-67
2021/11/24 08:19:56;;;;;;;18.67;11.20;;;;;;;;;;5054730;28;20033;-66
2021/11/24 08:22:24;;;;;;;16.27;11.82;;;;;;;;;;5054411;28;20047;-67
2021/11/24 08:24:49;;;;;;;17.02;12.55;;;;;;;;;;5054364;28;20414;-67
2021/11/24 08:27:15;;;;;;;17.70;11.95;;;;;;;;;;5054625;28;20033;-67
2021/11/24 08:29:40;;;;;;;18.83;11.95;;;;;;;;;;5054370;28;20053;-67
2021/11/24 08:32:06;;;;;;;16.73;11.90;;;;;;;;;;5053578;28;20033;-67
2021/11/24 08:34:32;;;;;;;19.05;11.82;;;;;;;;;;5054513;28;20029;-67
2021/11/24 08:36:58;;;;;;;18.48;11.07;;;;;;;;;;5054472;28;20041;-67
2021/11/24 08:39:25;;;;;;;18.88;11.13;;;;;;;;;;5054362;28;20047;-67
2021/11/24 08:41:51;;;;;;;22.13;12.38;;;;;;;;;;5054075;28;20052;-67
2021/11/24 08:44:16;;;;;;;15.55;11.43;;;;;;;;;;5053995;28;20029;-67
2021/11/24 08:46:42;;;;;;;21.63;12.30;;;;;;;;;;5054129;28;20055;-67
2021/11/24 08:49:08;;;;;;;17.27;10.93;;;;;;;;;;5052956;28;20044;-67
2021/11/24 08:51:34;;;;;;;17.58;10.48;;;;;;;;;;5053264;28;20396;-67
2021/11/24 08:53:59;;;;;;;15.35;10.73;;;;;;;;;;5053562;28;20475;-68
2021/11/24 08:56:25;;;;;;;15.90;10.50;;;;;;;;;;5053199;28;20041;-68
2021/11/24 08:58:52;;;;;;;18.73;11.98;;;;;;;;;;5053925;28;20021;-68
2021/11/24 09:01:17;;;;;;;16.48;11.00;;;;;;;;;;5053808;28;20040;-68
2021/11/24 09:03:43;;;;;;;15.15;10.40;;;;;;;;;;5053224;28;20496;-68
2021/11/24 09:06:09;;;;;;;17.00;10.75;;;;;;;;;;5035013;28;20037;-68
2021/11/24 09:08:34;;;;;;;16.15;10.90;;;;;;;;;;5053561;28;20032;-69
2021/11/24 09:11:00;;;;;;;15.02;10.38;;;;;;;;;;5053268;28;20043;-69
2021/11/24 09:13:26;;;;;;;17.70;11.07;;;;;;;;;;5053148;28;20056;-69
2021/11/24 09:15:51;;;;;;;15.52;10.25;;;;;;;;;;5053416;28;20037;-69
2021/11/24 09:18:17;;;;;;;15.82;9.85;;;;;;;;;;5053475;28;20040;-69
2021/11/24 09:20:43;;;;;;;15.15;9.15;;;;;;;;;;5053396;28;20037;-69
2021/11/24 09:23:09;;;;;;;16.65;9.88;;;;;;;;;;5053372;28;20027;-69
2021/11/24 09:25:46;;;;;;;16.48;10.07;;;;;;;;;;5053258;28;20033;-69
2021/11/24 09:28:13;;;;;;;16.65;10.07;;;;;;;;;;5053433;28;20563;-68
2021/11/24 09:30:39;;;;;;;13.63;9.85;;;;;;;;;;5053424;28;20025;-68
2021/11/24 09:33:05;;;;;;;17.17;10.65;;;;;;;;;;5053340;28;20037;-68
2021/11/24 09:35:32;;;;;;;15.00;9.35;;;;;;;;;;5053372;28;20032;-68
2021/11/24 09:37:57;;;;;;;15.07;9.77;;;;;;;;;;5053367;28;20044;-69
2021/11/24 09:40:23;;;;;;;13.43;9.02;;;;;;;;;;5053212;28;20393;-69
2021/11/24 09:42:50;;;;;;;12.65;9.18;;;;;;;;;;5053133;28;20472;-69
2021/11/24 09:45:16;;;;;;;14.32;9.23;;;;;;;;;;5053360;28;20035;-68
2021/11/24 09:47:46;;;;;;;13.88;8.93;;;;;;;;;;5052770;28;20033;-68
2021/11/24 09:50:12;;;;;;;12.07;9.27;;;;;;;;;;5052854;28;20401;-69
2021/11/24 09:52:42;;;;;;;15.15;9.98;;;;;;;;;;5053136;28;20032;-69
2021/11/24 09:55:08;;;;;;;11.43;7.47;;;;;;;;;;5035382;28;20497;-68
2021/11/24 09:57:33;;;;;;;11.73;8.70;;;;;;;;;;5053117;28;20068;-68
2021/11/24 09:59:59;;;;;;;14.70;9.38;;;;;;;;;;5052724;28;20041;-72
2021/11/24 10:02:24;;;;;;;13.65;9.90;;;;;;;;;;5053055;28;20043;-73
2021/11/24 10:04:50;;;;;;;15.32;9.68;;;;;;;;;;5052017;28;20525;-73
2021/11/24 10:07:17;;;;;;;14.27;10.25;;;;;;;;;;5051871;28;20071;-73
2021/11/24 10:09:44;;;;;;;14.60;9.65;;;;;;;;;;5035258;28;20461;-73
2021/11/24 10:12:09;;;;;;;13.80;9.90;;;;;;;;;;5052910;28;20466;-73
2021/11/24 10:14:35;;;;;;;13.00;8.80;;;;;;;;;;5052664;28;20033;-74
2021/11/24 10:17:05;;;;;;;15.77;10.13;;;;;;;;;;5052711;28;20393;-73
2021/11/24 10:19:31;;;;;;;13.52;8.77;;;;;;;;;;5052909;28;20135;-73
2021/11/24 10:22:06;;;;;;;13.40;9.02;;;;;;;;;;5052878;28;20112;-74
2021/11/24 10:24:33;;;;;;;14.68;8.95;;;;;;;;;;5052916;28;20033;-73
2021/11/24 10:27:01;;;;;;;16.02;9.35;;;;;;;;;;5052992;28;20385;-74
2021/11/24 10:29:28;;;;;;;12.55;8.68;;;;;;;;;;5052625;28;20029;-73
2021/11/24 10:31:56;;;;;;;11.20;8.88;;;;;;;;;;5052947;28;20040;-73
2021/11/24 10:34:32;;;;;;;13.68;9.73;;;;;;;;;;5052750;28;20118;-73
2021/11/24 10:37:06;;;;;;;14.75;9.82;;;;;;;;;;5052904;28;20040;-74
2021/11/24 10:39:33;;;;;;;15.73;9.40;;;;;;;;;;5052577;28;20037;-73
2021/11/24 10:42:03;;;;;;;14.60;8.85;;;;;;;;;;5052855;28;20032;-74
2021/11/24 10:44:30;;;;;;;13.45;9.05;;;;;;;;;;5052896;28;20358;-73
2021/11/24 10:46:56;;;;;;;14.13;8.93;;;;;;;;;;5052720;28;20465;-73
2021/11/24 10:49:33;;;;;;;15.85;9.23;;;;;;;;;;5052565;28;20128;-73
2021/11/24 10:52:09;;;;;;;13.50;8.70;;;;;;;;;;5052495;28;20056;-73
2021/11/24 10:54:35;;;;;;;14.68;8.43;;;;;;;;;;5052510;28;20045;-73
2021/11/24 10:57:02;;;;;;;11.60;7.32;;;;;;;;;;5056150;28;20035;-73
2021/11/24 10:59:29;;;;;;;17.10;9.35;;;;;;;;;;5056181;28;20037;-73
2021/11/24 11:02:14;;;;;;;13.23;9.05;;;;;;;;;;5056130;28;20033;-73
2021/11/24 11:05:12;;;;;;;14.48;9.27;;;;;;;;;;5056111;28;20033;-73
2021/11/24 11:07:38;;;;;;;14.32;8.57;;;;;;;;;;5011161;28;20425;-73
2021/11/24 11:10:10;;;;;;;14.60;9.55;;;;;;;;;;5055701;28;20031;-73
2021/11/24 11:12:38;;;;;;;15.13;8.73;;;;;;;;;;5055685;28;20403;-73
2021/11/24 11:15:11;;;;;;;12.10;8.00;;;;;;;;;;5055773;28;20108;-73
2021/11/24 11:17:55;;;;;;;12.00;8.07;;;;;;;;;;5055726;28;20029;-73
2021/11/24 11:20:23;;;;;;;13.05;7.95;;;;;;;;;;5055524;28;20121;-73
2021/11/24 11:23:02;;;;;;;11.25;7.95;;;;;;;;;;5055789;28;20036;-73
2021/11/24 11:25:28;;;;;;;11.02;7.68;;;;;;;;;;5055527;28;20033;-74
2021/11/24 11:27:54;;;;;;;9.30;7.05;;;;;;;;;;5055613;28;20446;-73
2021/11/24 11:30:20;;;;;;;10.55;5.97;;;;;;;;;;5055811;28;20116;-73
2021/11/24 11:32:46;;;;;;;13.10;7.95;;;;;;;;;;5055347;28;20060;-73
2021/11/24 11:35:12;;;;;;;12.05;6.90;;;;;;;;;;5037622;28;20036;-73
2021/11/24 11:37:37;;;;;;;9.95;6.65;;;;;;;;;;5054928;28;20090;-74
2021/11/24 11:40:03;;;;;;;8.68;5.97;;;;;;;;;;5054819;28;20397;-73
2021/11/24 11:42:30;;;;;;;9.73;6.78;;;;;;;;;;5055106;28;20025;-73
2021/11/24 11:44:59;;;;;;;10.95;7.95;;;;;;;;;;5055245;28;20032;-74
2021/11/24 11:48:00;;;;;;;12.35;8.35;;;;;;;;;;5055270;28;20037;-72
2021/11/24 11:50:37;;;;;;;9.38;5.95;;;;;;;;;;4973994;28;20043;-73
2021/11/24 11:53:09;;;;;;;7.32;5.47;;;;;;;;;;5045185;28;20061;-73
2021/11/24 11:55:35;;;;;;;7.13;5.22;;;;;;;;;;5055119;28;20049;-73
2021/11/24 11:58:01;;;;;;;17.00;8.55;;;;;;;;;;5055135;28;20025;-73
2021/11/24 12:00:33;;;;;;;15.95;9.82;;;;;;;;;;5054974;28;20033;-73
2021/11/24 12:02:58;;;;;;;11.23;7.60;;;;;;;;;;5037133;28;20124;-73
2021/11/24 12:05:24;;;;;;;10.77;7.63;;;;;;;;;;5054947;28;20071;-72
2021/11/24 12:08:06;;;;;;;9.07;6.05;;;;;;;;;;5054891;28;20029;-73
2021/11/24 12:10:51;;;;;;;7.05;5.68;;;;;;;;;;5055084;28;20477;-73
2021/11/24 12:13:17;;;;;;;7.80;4.80;;;;;;;;;;5054753;28;20068;-73
2021/11/24 12:15:42;;;;;;;6.53;5.43;;;;;;;;;;5054957;28;20056;-73
2021/11/24 12:18:11;;;;;;;6.32;5.00;;;;;;;;;;5054529;28;20431;-74
2021/11/24 12:20:40;;;;;;;8.48;6.07;;;;;;;;;;5054914;28;20416;-73
2021/11/24 12:23:11;;;;;;;7.35;6.10;;;;;;;;;;5054294;28;20067;-73
2021/11/24 12:25:37;;;;;;;7.93;5.38;;;;;;;;;;5054618;28;20033;-73
2021/11/24 12:28:07;;;;;;;8.45;5.72;;;;;;;;;;5054370;28;20025;-73
2021/11/24 12:33:08;;;;;;;8.82;6.00;;;;;;;;;;5054526;28;20025;-73
2021/11/24 12:35:35;;;;;;;9.98;5.68;;;;;;;;;;5054673;28;20461;-74
2021/11/24 12:38:02;;;;;;;8.23;5.90;;;;;;;;;;5054410;28;20064;-73
2021/11/24 12:40:29;;;;;;;9.13;6.15;;;;;;;;;;5054418;28;20131;-73
2021/11/24 12:42:56;;;;;;;8.35;5.82;;;;;;;;;;5054122;28;20122;-73
2021/11/24 12:45:22;;;;;;;9.35;6.05;;;;;;;;;;5036398;28;20037;-73
2021/11/24 12:48:00;;;;;;;9.95;6.40;;;;;;;;;;5053549;28;20044;-73
2021/11/24 12:50:27;;;;;;;10.48;6.50;;;;;;;;;;5053834;28;20033;-73
2021/11/24 12:53:03;;;;;;;9.93;6.53;;;;;;;;;;5069224;28;20041;-72
2021/11/24 12:55:32;;;;;;;12.60;7.15;;;;;;;;;;5053961;28;20036;-73
2021/11/24 12:57:58;;;;;;;12.30;7.85;;;;;;;;;;5053994;28;20031;-73
2021/11/24 13:00:28;;;;;;;14.52;8.02;;;;;;;;;;5053718;28;20049;-73
2021/11/24 13:02:54;;;;;;;;;;;;;;;;;;5054439;28;20037;-72
2021/11/24 13:05:19;;;;;;;13.50;7.15;;;;;;;;;;5053804;28;19911;-73
2021/11/24 13:07:51;;;;;;;10.85;7.13;;;;;;;;;;5054143;28;20098;-74
2021/11/24 13:10:18;;;;;;;14.48;8.63;;;;;;;;;;5053853;28;20033;-73
2021/11/24 13:12:43;;;;;;;13.35;8.38;;;;;;;;;;5053620;28;20091;-74
2021/11/24 13:15:09;;;;;;;17.70;10.35;;;;;;;;;;5053711;28;20041;-73
2021/11/24 13:17:39;;;;;;;15.68;8.93;;;;;;;;;;5053191;28;20089;-73
2021/11/24 13:20:10;;;;;;;15.15;9.02;;;;;;;;;;5053676;28;20037;-73
2021/11/24 13:22:39;;;;;;;15.70;10.13;;;;;;;;;;5053239;28;20457;-73
2021/11/24 13:25:11;;;;;;;15.27;9.80;;;;;;;;;;5053168;28;20025;-73
2021/11/24 13:27:37;;;;;;;13.05;8.75;;;;;;;;;;5034998;28;20049;-73
2021/11/24 13:30:03;;;;;;;12.50;8.15;;;;;;;;;;5053608;28;20029;-73
2021/11/24 13:32:29;;;;;;;13.40;8.63;;;;;;;;;;5053184;28;20123;-73
2021/11/24 13:34:56;;;;;;;17.88;9.95;;;;;;;;;;5053571;28;20052;-73
2021/11/24 13:37:26;;;;;;;15.77;10.07;;;;;;;;;;5035771;28;20504;-73
2021/11/24 13:39:56;;;;;;;18.30;9.85;;;;;;;;;;5053258;28;20463;-73
2021/11/24 13:42:22;;;;;;;17.77;9.88;;;;;;;;;;5053084;28;20393;-73
2021/11/24 13:44:48;;;;;;;19.42;11.43;;;;;;;;;;5053139;28;20099;-73
2021/11/24 13:47:14;;;;;;;26.55;12.00;;;;;;;;;;5052921;28;20111;-73
2021/11/24 13:49:43;;;;;;;24.63;12.80;;;;;;;;;;5053055;28;20503;-73
2021/11/24 13:52:10;;;;;;;30.13;13.30;;;;;;;;;;5053474;28;20059;-73
2021/11/24 13:54:46;;;;;;;27.00;13.07;;;;;;;;;;5052963;28;20025;-75
2021/11/24 13:57:14;;;;;;;22.95;11.40;;;;;;;;;;5052936;28;20037;-73
2021/11/24 13:59:40;;;;;;;14.20;8.82;;;;;;;;;;5052964;28;20614;-74
2021/11/24 14:02:13;;;;;;;20.95;10.38;;;;;;;;;;5053169;28;20033;-73
2021/11/24 14:04:42;;;;;;;26.40;12.70;;;;;;;;;;5053071;28;20037;-74
2021/11/24 14:07:10;;;;;;;25.40;12.60;;;;;;;;;;5052769;28;20029;-73
2021/11/24 14:09:39;;;;;;;21.25;10.07;;;;;;;;;;5053424;28;20371;-73
2021/11/24 14:12:25;;;;;;;25.65;11.70;;;;;;;;;;5035392;28;20017;-73
2021/11/24 14:14:52;;;;;;;16.73;9.57;;;;;;;;;;5053039;28;20044;-74
2021/11/24 14:17:25;;;;;;;16.77;10.10;;;;;;;;;;5053110;28;20021;-73
2021/11/24 14:19:51;;;;;;;14.85;9.85;;;;;;;;;;5052701;28;20052;-73
2021/11/24 14:22:17;;;;;;;14.77;9.63;;;;;;;;;;5052814;28;20028;-75
2021/11/24 14:24:42;;;;;;;13.32;8.45;;;;;;;;;;5052663;28;20045;-73
2021/11/24 14:27:08;;;;;;;11.43;7.30;;;;;;;;;;5053151;28;20462;-73